sensor_id;sensor_type;location;lat;lon;timestamp;P1;durP1;ratioP1;P2;durP2;ratioP2
11211;SDS011;5663;50.864;12.096;2023-03-03T00:01:58;68.60;;;31.57;;
11211;SDS011;5663;50.864;12.096;2023-03-03T00:04:25;64.83;;;30.60;;
11211;SDS011;5663;50.864;12.096;2023-03-03T00:06:54;67.17;;;29.10;;
11211;SDS011;5663;50.864;12.096;2023-03-03T00:09:22;64.77;;;28.60;;
11211;SDS011;5663;50.864;12.096;2023-03-03T00:11:53;47.43;;;22.87;;
11211;SDS011;5663;50.864;12.096;2023-03-03T00:14:23;62.40;;;29.17;;
11211;SDS011;5663;50.864;12.096;2023-03-03T00:16:55;93.97;;;33.27;;
11211;SDS011;5663;50.864;12.096;2023-03-03T00:19:23;56.70;;;26.87;;
11211;SDS011;5663;50.864;12.096;2023-03-03T00:21:51;60.70;;;28.33;;
11211;SDS011;5663;50.864;12.096;2023-03-03T00:24:23;90.20;;;31.20;;
11211;SDS011;5663;50.864;12.096;2023-03-03T00:27:14;68.70;;;30.03;;
11211;SDS011;5663;50.864;12.096;2023-03-03T00:29:54;73.17;;;30.87;;
11211;SDS011;5663;50.864;12.096;2023-03-03T00:32:24;66.10;;;30.83;;
11211;SDS011;5663;50.864;12.096;2023-03-03T00:35:00;83.23;;;32.70;;
11211;SDS011;5663;50.864;12.096;2023-03-03T00:37:46;81.57;;;28.10;;
11211;SDS011;5663;50.864;12.096;2023-03-03T00:40:21;63.53;;;29.90;;
11211;SDS011;5663;50.864;12.096;2023-03-03T00:42:53;65.37;;;30.10;;
11211;SDS011;5663;50.864;12.096;2023-03-03T00:45:24;83.80;;;31.33;;
11211;SDS011;5663;50.864;12.096;2023-03-03T00:48:07;68.50;;;30.03;;
11211;SDS011;5663;50.864;12.096;2023-03-03T00:50:46;55.30;;;27.10;;
11211;SDS011;5663;50.864;12.096;2023-03-03T00:53:14;61.73;;;28.07;;
11211;SDS011;5663;50.864;12.096;2023-03-03T00:55:43;67.03;;;29.83;;
11211;SDS011;5663;50.864;12.096;2023-03-03T00:58:14;63.97;;;28.93;;
11211;SDS011;5663;50.864;12.096;2023-03-03T01:00:43;48.77;;;25.27;;
11211;SDS011;5663;50.864;12.096;2023-03-03T01:03:14;45.73;;;23.53;;
11211;SDS011;5663;50.864;12.096;2023-03-03T01:05:43;58.23;;;27.33;;
11211;SDS011;5663;50.864;12.096;2023-03-03T01:08:12;56.17;;;25.87;;
11211;SDS011;5663;50.864;12.096;2023-03-03T01:10:41;79.13;;;31.30;;
11211;SDS011;5663;50.864;12.096;2023-03-03T01:13:13;80.50;;;28.77;;
11211;SDS011;5663;50.864;12.096;2023-03-03T01:15:42;66.50;;;25.43;;
11211;SDS011;5663;50.864;12.096;2023-03-03T01:18:11;53.40;;;25.40;;
11211;SDS011;5663;50.864;12.096;2023-03-03T03:20:50;54.63;;;23.73;;
11211;SDS011;5663;50.864;12.096;2023-03-03T03:23:17;44.63;;;21.10;;
11211;SDS011;5663;50.864;12.096;2023-03-03T03:25:46;38.20;;;18.50;;
11211;SDS011;5663;50.864;12.096;2023-03-03T03:28:15;60.43;;;25.13;;
11211;SDS011;5663;50.864;12.096;2023-03-03T03:30:43;49.53;;;22.60;;
11211;SDS011;5663;50.864;12.096;2023-03-03T03:33:11;52.17;;;22.77;;
11211;SDS011;5663;50.864;12.096;2023-03-03T03:35:40;44.57;;;21.23;;
11211;SDS011;5663;50.864;12.096;2023-03-03T03:38:12;48.43;;;21.70;;
11211;SDS011;5663;50.864;12.096;2023-03-03T03:40:40;38.50;;;18.40;;
11211;SDS011;5663;50.864;12.096;2023-03-03T03:43:08;35.43;;;18.43;;
11211;SDS011;5663;50.864;12.096;2023-03-03T03:45:35;43.10;;;20.43;;
11211;SDS011;5663;50.864;12.096;2023-03-03T03:48:03;50.07;;;22.47;;
11211;SDS011;5663;50.864;12.096;2023-03-03T03:50:31;48.87;;;22.10;;
11211;SDS011;5663;50.864;12.096;2023-03-03T03:52:59;52.43;;;23.03;;
11211;SDS011;5663;50.864;12.096;2023-03-03T03:55:28;54.13;;;22.97;;
11211;SDS011;5663;50.864;12.096;2023-03-03T03:57:55;50.63;;;22.70;;
11211;SDS011;5663;50.864;12.096;2023-03-03T04:00:23;48.57;;;22.50;;
11211;SDS011;5663;50.864;12.096;2023-03-03T04:02:51;47.13;;;22.67;;
11211;SDS011;5663;50.864;12.096;2023-03-03T04:05:19;47.37;;;21.87;;
11211;SDS011;5663;50.864;12.096;2023-03-03T04:07:46;57.70;;;23.77;;
11211;SDS011;5663;50.864;12.096;2023-03-03T04:10:14;44.10;;;20.20;;
11211;SDS011;5663;50.864;12.096;2023-03-03T04:12:43;46.43;;;21.33;;
11211;SDS011;5663;50.864;12.096;2023-03-03T04:15:11;48.23;;;22.57;;
11211;SDS011;5663;50.864;12.096;2023-03-03T04:17:40;48.30;;;22.10;;
11211;SDS011;5663;50.864;12.096;2023-03-03T04:20:09;54.17;;;23.20;;
11211;SDS011;5663;50.864;12.096;2023-03-03T04:22:39;56.80;;;23.73;;
11211;SDS011;5663;50.864;12.096;2023-03-03T04:25:08;54.17;;;23.90;;
11211;SDS011;5663;50.864;12.096;2023-03-03T04:27:38;60.37;;;23.97;;
11211;SDS011;5663;50.864;12.096;2023-03-03T04:30:07;61.33;;;25.97;;
11211;SDS011;5663;50.864;12.096;2023-03-03T04:32:36;52.03;;;22.60;;
11211;SDS011;5663;50.864;12.096;2023-03-03T04:35:05;55.17;;;23.67;;
11211;SDS011;5663;50.864;12.096;2023-03-03T04:37:37;58.50;;;25.97;;
11211;SDS011;5663;50.864;12.096;2023-03-03T04:40:06;63.50;;;26.43;;
11211;SDS011;5663;50.864;12.096;2023-03-03T04:42:35;50.70;;;22.40;;
11211;SDS011;5663;50.864;12.096;2023-03-03T04:45:03;55.97;;;24.40;;
11211;SDS011;5663;50.864;12.096;2023-03-03T04:47:33;44.40;;;20.73;;
11211;SDS011;5663;50.864;12.096;2023-03-03T04:50:01;50.07;;;22.87;;
11211;SDS011;5663;50.864;12.096;2023-03-03T04:52:29;53.07;;;23.63;;
11211;SDS011;5663;50.864;12.096;2023-03-03T04:54:59;46.63;;;22.30;;
11211;SDS011;5663;50.864;12.096;2023-03-03T04:57:26;46.93;;;21.67;;
11211;SDS011;5663;50.864;12.096;2023-03-03T04:59:55;46.97;;;21.87;;
11211;SDS011;5663;50.864;12.096;2023-03-03T05:02:22;55.73;;;24.43;;
11211;SDS011;5663;50.864;12.096;2023-03-03T05:04:52;48.00;;;22.40;;
11211;SDS011;5663;50.864;12.096;2023-03-03T05:07:20;48.03;;;22.10;;
11211;SDS011;5663;50.864;12.096;2023-03-03T05:09:47;53.03;;;23.03;;
11211;SDS011;5663;50.864;12.096;2023-03-03T05:12:17;49.70;;;22.30;;
11211;SDS011;5663;50.864;12.096;2023-03-03T05:14:44;68.60;;;26.27;;
11211;SDS011;5663;50.864;12.096;2023-03-03T05:17:12;54.13;;;24.03;;
11211;SDS011;5663;50.864;12.096;2023-03-03T05:19:40;93.50;;;26.27;;
11211;SDS011;5663;50.864;12.096;2023-03-03T10:22:17;24.17;;;11.93;;
11211;SDS011;5663;50.864;12.096;2023-03-03T10:24:53;20.77;;;11.90;;
11211;SDS011;5663;50.864;12.096;2023-03-03T10:27:35;18.57;;;10.60;;
11211;SDS011;5663;50.864;12.096;2023-03-03T10:30:27;17.87;;;10.27;;
11211;SDS011;5663;50.864;12.096;2023-03-03T10:33:22;19.97;;;10.30;;
11211;SDS011;5663;50.864;12.096;2023-03-03T10:36:15;14.50;;;8.50;;
11211;SDS011;5663;50.864;12.096;2023-03-03T10:41:55;12.93;;;7.50;;
11211;SDS011;5663;50.864;12.096;2023-03-03T10:44:39;10.00;;;7.33;;
11211;SDS011;5663;50.864;12.096;2023-03-03T10:47:39;14.27;;;8.40;;
11211;SDS011;5663;50.864;12.096;2023-03-03T10:50:20;12.03;;;8.00;;
11211;SDS011;5663;50.864;12.096;2023-03-03T10:52:55;16.23;;;8.73;;
11211;SDS011;5663;50.864;12.096;2023-03-03T10:55:43;14.00;;;8.87;;
11211;SDS011;5663;50.864;12.096;2023-03-03T10:58:32;13.43;;;8.40;;
11211;SDS011;5663;50.864;12.096;2023-03-03T11:01:23;12.20;;;7.57;;
11211;SDS011;5663;50.864;12.096;2023-03-03T11:06:53;10.50;;;6.60;;
11211;SDS011;5663;50.864;12.096;2023-03-03T11:09:30;9.60;;;6.27;;
11211;SDS011;5663;50.864;12.096;2023-03-03T11:12:11;10.17;;;6.50;;
11211;SDS011;5663;50.864;12.096;2023-03-03T11:14:59;11.23;;;6.57;;
11211;SDS011;5663;50.864;12.096;2023-03-03T11:17:50;13.07;;;7.73;;
11211;SDS011;5663;50.864;12.096;2023-03-03T11:20:30;13.97;;;8.43;;
11211;SDS011;5663;50.864;12.096;2023-03-03T11:23:07;13.90;;;8.63;;
11211;SDS011;5663;50.864;12.096;2023-03-03T11:25:51;15.40;;;8.90;;
11211;SDS011;5663;50.864;12.096;2023-03-03T11:28:40;15.90;;;9.50;;
11211;SDS011;5663;50.864;12.096;2023-03-03T11:31:20;19.70;;;9.97;;
11211;SDS011;5663;50.864;12.096;2023-03-03T11:33:55;18.30;;;9.80;;
11211;SDS011;5663;50.864;12.096;2023-03-03T11:36:32;19.50;;;9.60;;
11211;SDS011;5663;50.864;12.096;2023-03-03T11:39:03;21.27;;;11.03;;
11211;SDS011;5663;50.864;12.096;2023-03-03T11:41:35;20.80;;;11.50;;
11211;SDS011;5663;50.864;12.096;2023-03-03T11:44:18;18.73;;;10.50;;
11211;SDS011;5663;50.864;12.096;2023-03-03T11:46:49;22.23;;;11.30;;
11211;SDS011;5663;50.864;12.096;2023-03-03T11:49:21;22.90;;;13.20;;
11211;SDS011;5663;50.864;12.096;2023-03-03T11:52:00;23.47;;;12.13;;
11211;SDS011;5663;50.864;12.096;2023-03-03T11:54:33;23.77;;;14.03;;
11211;SDS011;5663;50.864;12.096;2023-03-03T11:57:15;30.10;;;16.13;;
11211;SDS011;5663;50.864;12.096;2023-03-03T11:59:52;27.37;;;15.00;;
11211;SDS011;5663;50.864;12.096;2023-03-03T12:02:30;25.10;;;14.43;;
11211;SDS011;5663;50.864;12.096;2023-03-03T12:05:10;25.57;;;12.90;;
11211;SDS011;5663;50.864;12.096;2023-03-03T12:07:52;27.80;;;15.90;;
11211;SDS011;5663;50.864;12.096;2023-03-03T12:10:32;33.73;;;17.33;;
11211;SDS011;5663;50.864;12.096;2023-03-03T12:13:11;29.20;;;14.93;;
11211;SDS011;5663;50.864;12.096;2023-03-03T12:15:50;36.70;;;17.60;;
11211;SDS011;5663;50.864;12.096;2023-03-03T12:18:31;32.97;;;17.67;;
11211;SDS011;5663;50.864;12.096;2023-03-03T12:21:18;28.67;;;16.50;;
11211;SDS011;5663;50.864;12.096;2023-03-03T16:22:40;20.63;;;11.50;;
11211;SDS011;5663;50.864;12.096;2023-03-03T16:25:40;19.00;;;11.43;;
11211;SDS011;5663;50.864;12.096;2023-03-03T16:28:24;18.67;;;10.47;;
11211;SDS011;5663;50.864;12.096;2023-03-03T16:31:02;18.40;;;9.90;;
11211;SDS011;5663;50.864;12.096;2023-03-03T16:33:36;16.87;;;9.47;;
11211;SDS011;5663;50.864;12.096;2023-03-03T16:36:11;16.73;;;9.70;;
11211;SDS011;5663;50.864;12.096;2023-03-03T16:38:50;17.47;;;10.13;;
11211;SDS011;5663;50.864;12.096;2023-03-03T16:41:26;14.37;;;7.87;;
11211;SDS011;5663;50.864;12.096;2023-03-03T16:44:08;14.40;;;8.10;;
11211;SDS011;5663;50.864;12.096;2023-03-03T16:46:46;18.00;;;9.13;;
11211;SDS011;5663;50.864;12.096;2023-03-03T16:49:17;17.67;;;9.03;;
11211;SDS011;5663;50.864;12.096;2023-03-03T16:51:55;19.37;;;9.77;;
11211;SDS011;5663;50.864;12.096;2023-03-03T16:54:33;16.30;;;7.97;;
11211;SDS011;5663;50.864;12.096;2023-03-03T16:57:10;15.17;;;9.20;;
11211;SDS011;5663;50.864;12.096;2023-03-03T16:59:58;14.37;;;8.53;;
11211;SDS011;5663;50.864;12.096;2023-03-03T17:02:48;14.23;;;7.93;;
11211;SDS011;5663;50.864;12.096;2023-03-03T17:05:37;14.83;;;8.40;;
11211;SDS011;5663;50.864;12.096;2023-03-03T17:08:13;14.43;;;8.93;;
11211;SDS011;5663;50.864;12.096;2023-03-03T17:10:59;15.07;;;8.87;;
11211;SDS011;5663;50.864;12.096;2023-03-03T17:13:42;14.20;;;7.97;;
11211;SDS011;5663;50.864;12.096;2023-03-03T17:16:24;17.13;;;9.87;;
11211;SDS011;5663;50.864;12.096;2023-03-03T17:19:00;16.23;;;9.23;;
11211;SDS011;5663;50.864;12.096;2023-03-03T17:21:45;14.43;;;8.90;;
11211;SDS011;5663;50.864;12.096;2023-03-03T17:24:27;14.57;;;8.67;;
11211;SDS011;5663;50.864;12.096;2023-03-03T17:27:06;17.83;;;10.13;;
11211;SDS011;5663;50.864;12.096;2023-03-03T17:29:46;16.60;;;8.67;;
11211;SDS011;5663;50.864;12.096;2023-03-03T17:32:23;17.83;;;10.80;;
11211;SDS011;5663;50.864;12.096;2023-03-03T17:35:07;16.57;;;9.17;;
11211;SDS011;5663;50.864;12.096;2023-03-03T17:37:55;17.57;;;8.90;;
11211;SDS011;5663;50.864;12.096;2023-03-03T17:40:34;12.53;;;7.93;;
11211;SDS011;5663;50.864;12.096;2023-03-03T17:43:14;13.53;;;7.90;;
11211;SDS011;5663;50.864;12.096;2023-03-03T17:45:48;15.47;;;8.07;;
11211;SDS011;5663;50.864;12.096;2023-03-03T17:48:33;14.20;;;8.50;;
11211;SDS011;5663;50.864;12.096;2023-03-03T17:51:22;15.87;;;9.07;;
11211;SDS011;5663;50.864;12.096;2023-03-03T17:54:18;13.93;;;8.20;;
11211;SDS011;5663;50.864;12.096;2023-03-03T17:56:57;13.87;;;7.47;;
11211;SDS011;5663;50.864;12.096;2023-03-03T17:59:43;16.47;;;9.27;;
11211;SDS011;5663;50.864;12.096;2023-03-03T18:05:42;17.53;;;10.63;;
11211;SDS011;5663;50.864;12.096;2023-03-03T18:08:39;16.20;;;9.47;;
11211;SDS011;5663;50.864;12.096;2023-03-03T18:11:29;15.63;;;9.10;;
11211;SDS011;5663;50.864;12.096;2023-03-03T18:20:20;18.83;;;10.53;;
11211;SDS011;5663;50.864;12.096;2023-03-03T20:23:32;12.93;;;8.10;;
11211;SDS011;5663;50.864;12.096;2023-03-03T20:26:11;12.80;;;7.17;;
11211;SDS011;5663;50.864;12.096;2023-03-03T20:31:50;13.43;;;8.87;;
11211;SDS011;5663;50.864;12.096;2023-03-03T20:34:27;14.63;;;8.90;;
11211;SDS011;5663;50.864;12.096;2023-03-03T20:37:04;13.57;;;8.83;;
11211;SDS011;5663;50.864;12.096;2023-03-03T20:39:42;14.57;;;9.63;;
11211;SDS011;5663;50.864;12.096;2023-03-03T20:42:22;15.10;;;10.30;;
11211;SDS011;5663;50.864;12.096;2023-03-03T20:45:08;16.13;;;10.23;;
11211;SDS011;5663;50.864;12.096;2023-03-03T20:47:47;14.43;;;9.60;;
11211;SDS011;5663;50.864;12.096;2023-03-03T20:50:25;13.33;;;8.83;;
11211;SDS011;5663;50.864;12.096;2023-03-03T20:53:13;13.57;;;7.97;;
11211;SDS011;5663;50.864;12.096;2023-03-03T20:55:56;13.10;;;8.97;;
11211;SDS011;5663;50.864;12.096;2023-03-03T20:58:35;16.17;;;9.33;;
11211;SDS011;5663;50.864;12.096;2023-03-03T21:01:24;12.10;;;8.73;;
11211;SDS011;5663;50.864;12.096;2023-03-03T21:04:17;13.13;;;8.97;;
11211;SDS011;5663;50.864;12.096;2023-03-03T21:06:46;12.83;;;8.20;;
11211;SDS011;5663;50.864;12.096;2023-03-03T21:09:25;11.20;;;7.73;;
11211;SDS011;5663;50.864;12.096;2023-03-03T21:12:00;13.40;;;8.93;;
11211;SDS011;5663;50.864;12.096;2023-03-03T21:14:30;12.80;;;8.87;;
11211;SDS011;5663;50.864;12.096;2023-03-03T21:17:10;13.33;;;8.77;;
11211;SDS011;5663;50.864;12.096;2023-03-03T21:19:51;11.53;;;8.37;;
11211;SDS011;5663;50.864;12.096;2023-03-03T21:22:19;11.60;;;8.43;;
11211;SDS011;5663;50.864;12.096;2023-03-03T22:23:20;11.60;;;7.80;;
11211;SDS011;5663;50.864;12.096;2023-03-03T22:25:48;12.23;;;7.57;;
11211;SDS011;5663;50.864;12.096;2023-03-03T22:28:16;10.60;;;7.53;;
11211;SDS011;5663;50.864;12.096;2023-03-03T22:30:43;13.77;;;8.83;;
11211;SDS011;5663;50.864;12.096;2023-03-03T22:33:11;12.83;;;8.40;;
11211;SDS011;5663;50.864;12.096;2023-03-03T22:35:38;11.87;;;7.80;;
11211;SDS011;5663;50.864;12.096;2023-03-03T22:38:06;12.83;;;8.37;;
11211;SDS011;5663;50.864;12.096;2023-03-03T22:40:35;12.33;;;8.60;;
11211;SDS011;5663;50.864;12.096;2023-03-03T22:43:02;11.50;;;8.40;;
11211;SDS011;5663;50.864;12.096;2023-03-03T22:45:31;10.10;;;7.40;;
11211;SDS011;5663;50.864;12.096;2023-03-03T22:48:00;19.97;;;8.70;;
11211;SDS011;5663;50.864;12.096;2023-03-03T22:50:27;10.73;;;7.83;;
11211;SDS011;5663;50.864;12.096;2023-03-03T22:52:55;10.73;;;8.13;;
11211;SDS011;5663;50.864;12.096;2023-03-03T22:55:23;11.07;;;8.27;;
11211;SDS011;5663;50.864;12.096;2023-03-03T22:57:52;11.03;;;8.30;;
11211;SDS011;5663;50.864;12.096;2023-03-03T23:00:20;14.00;;;9.10;;
11211;SDS011;5663;50.864;12.096;2023-03-03T23:02:48;11.13;;;8.03;;
11211;SDS011;5663;50.864;12.096;2023-03-03T23:05:16;11.90;;;8.43;;
11211;SDS011;5663;50.864;12.096;2023-03-03T23:07:44;11.87;;;8.30;;
11211;SDS011;5663;50.864;12.096;2023-03-03T23:10:12;10.57;;;7.60;;
11211;SDS011;5663;50.864;12.096;2023-03-03T23:12:40;10.20;;;7.80;;
11211;SDS011;5663;50.864;12.096;2023-03-03T23:15:09;13.13;;;9.43;;
11211;SDS011;5663;50.864;12.096;2023-03-03T23:17:39;13.20;;;8.97;;
11211;SDS011;5663;50.864;12.096;2023-03-03T23:20:09;12.00;;;9.00;;
11211;SDS011;5663;50.864;12.096;2023-03-03T23:22:39;11.20;;;7.90;;
